Time;durP1;ratioP1;P1;durP2;ratioP2;P2;SDS_P1;SDS_P2;PMS_P1;PMS_P2;Temp;Humidity;BMP_temperature;BMP_pressure;BME280_temperature;BME280_humidity;BME280_pressure;Samples;Min_cycle;Max_cycle;Signal;HPM_P1;HPM_P2
2021/11/19 00:02:18;;;;;;;53.40;22.63;;;;;;;;;;5032920;28;20049;-61
2021/11/19 00:04:46;;;;;;;59.10;22.45;;;;;;;;;;5032572;28;20060;-62
2021/11/19 00:07:14;;;;;;;57.25;24.83;;;;;;;;;;5032930;28;20084;-62
2021/11/19 00:09:41;;;;;;;54.33;21.30;;;;;;;;;;5032731;28;20554;-62
2021/11/19 00:12:09;;;;;;;53.83;21.17;;;;;;;;;;5032746;28;20514;-63
2021/11/19 00:14:36;;;;;;;52.88;20.73;;;;;;;;;;5032219;28;20049;-63
2021/11/19 00:17:08;;;;;;;58.65;21.25;;;;;;;;;;5032637;28;20049;-62
2021/11/19 00:19:37;;;;;;;55.92;22.85;;;;;;;;;;5032659;28;20057;-61
2021/11/19 00:22:07;;;;;;;54.67;21.77;;;;;;;;;;5032544;28;20049;-62
2021/11/19 00:24:35;;;;;;;54.40;23.03;;;;;;;;;;5032818;28;20489;-61
2021/11/19 00:27:02;;;;;;;50.03;20.38;;;;;;;;;;5032607;28;20132;-62
2021/11/19 00:29:29;;;;;;;53.08;20.23;;;;;;;;;;5032447;28;20573;-63
2021/11/19 00:31:56;;;;;;;47.08;19.50;;;;;;;;;;5032157;28;20463;-62
2021/11/19 00:34:24;;;;;;;48.83;19.02;;;;;;;;;;5032138;28;20059;-63
2021/11/19 00:36:55;;;;;;;43.50;16.75;;;;;;;;;;5032220;28;20042;-63
2021/11/19 00:39:25;;;;;;;39.40;17.50;;;;;;;;;;5032640;28;20543;-62
2021/11/19 00:41:53;;;;;;;41.67;17.17;;;;;;;;;;5032726;28;20057;-62
2021/11/19 00:44:21;;;;;;;41.03;17.23;;;;;;;;;;5032186;28;20559;-61
2021/11/19 00:46:49;;;;;;;39.53;18.92;;;;;;;;;;5031393;28;20077;-62
2021/11/19 00:49:19;;;;;;;39.17;17.17;;;;;;;;;;5032176;28;20049;-62
2021/11/19 00:51:49;;;;;;;48.13;19.45;;;;;;;;;;5032062;28;20309;-61
2021/11/19 00:54:16;;;;;;;46.27;19.30;;;;;;;;;;5032213;28;20137;-63
2021/11/19 00:56:47;;;;;;;49.95;20.20;;;;;;;;;;5031899;28;20055;-64
2021/11/19 00:59:15;;;;;;;48.13;21.48;;;;;;;;;;5032257;28;20045;-58
2021/11/19 01:01:45;;;;;;;48.65;19.35;;;;;;;;;;5031968;28;20060;-63
2021/11/19 01:04:14;;;;;;;56.30;22.20;;;;;;;;;;5031977;28;20055;-63
2021/11/19 01:06:42;;;;;;;56.42;22.95;;;;;;;;;;5031757;28;20054;-61
2021/11/19 01:09:13;;;;;;;52.47;21.00;;;;;;;;;;5032011;28;20125;-63
2021/11/19 01:11:42;;;;;;;46.13;19.40;;;;;;;;;;5031898;28;20068;-62
2021/11/19 01:14:17;;;;;;;54.15;21.15;;;;;;;;;;5031812;28;20136;-64
2021/11/19 01:16:48;;;;;;;54.75;23.27;;;;;;;;;;5031720;28;20072;-63
2021/11/19 01:19:18;;;;;;;58.60;23.38;;;;;;;;;;5031834;28;20064;-61
2021/11/19 01:21:48;;;;;;;66.90;25.67;;;;;;;;;;5031732;28;20516;-63
2021/11/19 01:24:15;;;;;;;63.30;25.05;;;;;;;;;;5031676;28;20142;-61
2021/11/19 01:26:44;;;;;;;62.13;24.00;;;;;;;;;;5031437;28;20077;-63
2021/11/19 01:29:15;;;;;;;54.42;21.52;;;;;;;;;;5031695;28;20053;-62
2021/11/19 01:31:47;;;;;;;47.40;19.48;;;;;;;;;;5031630;28;20472;-62
2021/11/19 01:34:14;;;;;;;46.67;19.55;;;;;;;;;;5031609;28;20050;-63
2021/11/19 01:36:41;;;;;;;44.55;18.02;;;;;;;;;;5031446;28;20192;-63
2021/11/19 01:39:11;;;;;;;39.42;17.10;;;;;;;;;;5031498;28;20045;-64
2021/11/19 01:41:40;;;;;;;37.83;15.82;;;;;;;;;;5031445;28;20052;-62
2021/11/19 01:44:17;;;;;;;39.50;17.10;;;;;;;;;;5031711;28;20081;-61
2021/11/19 01:46:46;;;;;;;40.00;16.63;;;;;;;;;;5031443;28;20085;-63
2021/11/19 01:49:13;;;;;;;41.40;16.98;;;;;;;;;;5031549;28;20088;-63
2021/11/19 01:51:45;;;;;;;40.10;16.55;;;;;;;;;;5031320;28;20107;-61
2021/11/19 01:54:15;;;;;;;40.30;17.48;;;;;;;;;;5031469;28;20380;-63
2021/11/19 01:56:47;;;;;;;40.00;16.75;;;;;;;;;;5031535;28;20085;-62
2021/11/19 01:59:19;;;;;;;38.70;16.02;;;;;;;;;;5035279;28;20092;-62
2021/11/19 02:01:49;;;;;;;37.22;15.73;;;;;;;;;;5035037;28;20530;-64
2021/11/19 02:04:19;;;;;;;34.00;15.20;;;;;;;;;;5035279;28;20060;-62
2021/11/19 02:06:49;;;;;;;37.83;17.42;;;;;;;;;;5034963;28;20055;-63
2021/11/19 02:09:25;;;;;;;35.13;16.42;;;;;;;;;;5034924;28;20145;-61
2021/11/19 02:12:08;;;;;;;34.85;16.42;;;;;;;;;;5034871;28;20045;-62
2021/11/19 02:14:45;;;;;;;36.90;16.50;;;;;;;;;;5034484;28;20126;-60
2021/11/19 02:17:13;;;;;;;36.00;15.02;;;;;;;;;;5034897;28;20056;-62
2021/11/19 02:19:45;;;;;;;38.55;16.38;;;;;;;;;;5035096;28;20103;-63
2021/11/19 02:22:16;;;;;;;34.83;17.40;;;;;;;;;;5034414;28;20128;-62
2021/11/19 02:24:45;;;;;;;;;;;;;;;;;;5034945;28;20176;-62
2021/11/19 02:27:17;;;;;;;41.35;16.63;;;;;;;;;;5034447;28;20008;-63
2021/11/19 02:29:53;;;;;;;40.25;16.45;;;;;;;;;;5034931;28;20108;-63
2021/11/19 02:32:23;;;;;;;32.67;15.20;;;;;;;;;;5034791;28;20041;-62
2021/11/19 02:34:50;;;;;;;41.65;17.33;;;;;;;;;;5034698;28;20137;-62
2021/11/19 02:37:22;;;;;;;36.40;16.75;;;;;;;;;;5034799;28;20491;-63
2021/11/19 02:39:52;;;;;;;43.50;16.83;;;;;;;;;;5035074;28;20136;-63
2021/11/19 02:42:21;;;;;;;39.13;17.88;;;;;;;;;;5035101;28;20045;-61
2021/11/19 02:44:56;;;;;;;38.08;17.23;;;;;;;;;;5033746;28;20479;-62
2021/11/19 02:47:25;;;;;;;34.60;15.02;;;;;;;;;;5035071;28;20081;-62
2021/11/19 02:49:53;;;;;;;35.88;16.83;;;;;;;;;;5034184;28;20054;-62
2021/11/19 02:52:23;;;;;;;37.72;15.82;;;;;;;;;;5033968;28;20130;-63
2021/11/19 02:54:52;;;;;;;33.17;15.40;;;;;;;;;;5033911;28;20056;-62
2021/11/19 02:57:20;;;;;;;33.00;15.10;;;;;;;;;;5034079;28;20046;-62
2021/11/19 02:59:49;;;;;;;41.83;17.95;;;;;;;;;;5033933;28;20046;-62
2021/11/19 03:02:21;;;;;;;37.00;16.48;;;;;;;;;;5033852;28;20418;-62
2021/11/19 03:04:52;;;;;;;36.90;16.23;;;;;;;;;;5034011;28;20084;-64
2021/11/19 03:07:20;;;;;;;34.42;15.48;;;;;;;;;;5034067;28;20049;-63
2021/11/19 03:09:52;;;;;;;37.33;16.80;;;;;;;;;;5033174;28;20140;-62
2021/11/19 03:12:23;;;;;;;39.42;16.75;;;;;;;;;;5033652;28;20553;-63
2021/11/19 03:14:53;;;;;;;38.17;16.08;;;;;;;;;;5033567;28;20056;-63
2021/11/19 03:17:24;;;;;;;42.83;18.60;;;;;;;;;;5033755;28;20132;-62
2021/11/19 03:19:52;;;;;;;35.70;16.52;;;;;;;;;;5033755;28;20049;-61
2021/11/19 03:22:22;;;;;;;38.00;16.20;;;;;;;;;;5033421;28;20057;-62
2021/11/19 03:24:50;;;;;;;40.37;16.83;;;;;;;;;;5033272;28;20088;-63
2021/11/19 03:27:18;;;;;;;44.92;18.90;;;;;;;;;;5033507;28;20780;-62
2021/11/19 03:29:46;;;;;;;38.75;17.63;;;;;;;;;;5033096;28;20475;-62
2021/11/19 03:32:18;;;;;;;37.95;17.40;;;;;;;;;;5033614;28;20574;-61
2021/11/19 03:34:46;;;;;;;33.97;15.27;;;;;;;;;;5033294;28;20136;-61
2021/11/19 03:37:14;;;;;;;38.90;17.55;;;;;;;;;;5033583;28;20225;-66
2021/11/19 03:39:41;;;;;;;40.60;17.33;;;;;;;;;;5033319;28;20558;-62
2021/11/19 03:42:10;;;;;;;39.95;18.58;;;;;;;;;;5033066;28;20521;-63
2021/11/19 03:44:44;;;;;;;41.88;16.75;;;;;;;;;;5032592;28;20056;-63
2021/11/19 03:47:14;;;;;;;41.17;17.67;;;;;;;;;;5033038;28;20395;-62
2021/11/19 03:49:42;;;;;;;38.13;16.88;;;;;;;;;;5033051;28;20045;-63
2021/11/19 03:52:14;;;;;;;41.42;18.40;;;;;;;;;;5032829;28;20050;-60
2021/11/19 03:54:44;;;;;;;39.38;17.88;;;;;;;;;;5032664;28;20052;-61
2021/11/19 03:57:13;;;;;;;39.38;16.98;;;;;;;;;;5033238;28;20092;-62
2021/11/19 03:59:41;;;;;;;41.75;18.85;;;;;;;;;;5032819;28;20085;-62
2021/11/19 04:02:09;;;;;;;41.45;18.42;;;;;;;;;;5032824;28;20143;-65
2021/11/19 04:04:38;;;;;;;40.40;16.52;;;;;;;;;;5032481;28;20483;-62
2021/11/19 04:07:06;;;;;;;43.20;18.92;;;;;;;;;;5032487;28;20107;-62
2021/11/19 04:09:35;;;;;;;47.65;17.40;;;;;;;;;;5032604;28;20476;-62
2021/11/19 04:12:03;;;;;;;42.15;18.45;;;;;;;;;;5032561;28;20045;-62
2021/11/19 04:14:31;;;;;;;39.85;17.27;;;;;;;;;;5032462;28;20574;-62
2021/11/19 04:16:59;;;;;;;41.20;17.48;;;;;;;;;;5032216;28;20041;-62
2021/11/19 04:19:29;;;;;;;38.50;17.83;;;;;;;;;;5032301;28;20092;-63
2021/11/19 04:21:58;;;;;;;43.50;18.10;;;;;;;;;;5031522;28;20085;-63
2021/11/19 04:24:32;;;;;;;47.88;19.30;;;;;;;;;;5032800;28;20491;-62
2021/11/19 04:27:01;;;;;;;42.33;18.02;;;;;;;;;;5032979;28;20091;-63
2021/11/19 04:29:28;;;;;;;49.20;19.40;;;;;;;;;;5032409;28;20059;-63
2021/11/19 04:31:55;;;;;;;59.03;23.42;;;;;;;;;;5032468;28;20141;-62
2021/11/19 04:34:22;;;;;;;58.90;22.20;;;;;;;;;;5032320;28;20510;-62
2021/11/19 04:36:49;;;;;;;55.72;21.70;;;;;;;;;;5032277;28;20058;-63
2021/11/19 04:39:17;;;;;;;61.88;24.65;;;;;;;;;;5032158;28;20049;-62
2021/11/19 04:41:45;;;;;;;69.75;26.15;;;;;;;;;;5032223;28;20128;-61
2021/11/19 04:44:14;;;;;;;54.97;21.95;;;;;;;;;;5032505;28;20522;-63
2021/11/19 04:46:42;;;;;;;56.88;22.80;;;;;;;;;;5076646;22;20058;-67
2021/11/19 04:49:09;;;;;;;53.28;21.92;;;;;;;;;;5092157;28;20051;-68
2021/11/19 04:51:38;;;;;;;50.30;21.15;;;;;;;;;;5085059;28;20419;-67
2021/11/19 04:54:06;;;;;;;43.15;19.15;;;;;;;;;;5072057;28;20049;-68
2021/11/19 04:56:34;;;;;;;46.92;17.92;;;;;;;;;;5071825;28;20143;-67
2021/11/19 04:59:01;;;;;;;43.60;18.52;;;;;;;;;;5071973;28;20465;-67
2021/11/19 05:01:31;;;;;;;42.03;17.95;;;;;;;;;;5071695;28;20052;-67
2021/11/19 05:03:59;;;;;;;46.47;17.80;;;;;;;;;;5072021;28;20091;-66
2021/11/19 05:06:26;;;;;;;43.63;19.40;;;;;;;;;;5071758;28;20159;-68
2021/11/19 05:08:53;;;;;;;37.22;17.83;;;;;;;;;;5071941;28;20052;-66
2021/11/19 05:11:28;;;;;;;49.50;20.35;;;;;;;;;;5071950;28;20049;-68
2021/11/19 05:13:58;;;;;;;46.95;18.15;;;;;;;;;;5071912;28;20416;-68
2021/11/19 05:16:25;;;;;;;42.13;18.48;;;;;;;;;;5071582;28;20048;-67
2021/11/19 05:18:54;;;;;;;42.63;19.38;;;;;;;;;;5071714;28;20162;-67
2021/11/19 05:21:22;;;;;;;39.20;16.17;;;;;;;;;;5071777;28;20053;-67
2021/11/19 05:23:50;;;;;;;37.53;17.10;;;;;;;;;;5071779;28;20051;-67
2021/11/19 05:26:17;;;;;;;38.10;16.33;;;;;;;;;;5071824;28;20052;-67
2021/11/19 05:28:45;;;;;;;38.88;15.38;;;;;;;;;;5071810;28;20146;-73
2021/11/19 05:31:13;;;;;;;40.67;16.70;;;;;;;;;;5071918;28;20058;-67
2021/11/19 05:33:41;;;;;;;35.45;15.35;;;;;;;;;;5075202;28;20044;-67
2021/11/19 05:36:09;;;;;;;39.55;15.52;;;;;;;;;;5075709;28;20080;-67
2021/11/19 05:38:39;;;;;;;41.80;16.77;;;;;;;;;;5076021;28;20059;-73
2021/11/19 05:41:07;;;;;;;45.97;17.70;;;;;;;;;;5076414;28;20120;-70
2021/11/19 05:43:35;;;;;;;43.60;17.50;;;;;;;;;;5076066;28;20050;-74
2021/11/19 05:46:03;;;;;;;40.50;17.02;;;;;;;;;;5075468;28;20143;-66
2021/11/19 05:48:30;;;;;;;49.90;19.75;;;;;;;;;;5075832;28;20055;-66
2021/11/19 05:50:58;;;;;;;49.05;19.48;;;;;;;;;;5075345;28;20101;-66
2021/11/19 05:53:27;;;;;;;42.00;18.35;;;;;;;;;;5075687;28;20044;-66
2021/11/19 05:55:55;;;;;;;47.35;19.83;;;;;;;;;;5075359;28;20055;-67
2021/11/19 05:58:22;;;;;;;49.67;20.23;;;;;;;;;;5075690;28;20067;-67
2021/11/19 06:00:52;;;;;;;46.72;18.23;;;;;;;;;;5074983;28;20052;-67
2021/11/19 06:03:20;;;;;;;48.75;17.98;;;;;;;;;;5075139;28;20098;-67
2021/11/19 06:05:47;;;;;;;41.58;17.60;;;;;;;;;;5075028;28;20044;-67
2021/11/19 06:08:15;;;;;;;48.10;18.98;;;;;;;;;;5075051;28;20060;-68
2021/11/19 06:10:50;;;;;;;50.20;18.77;;;;;;;;;;5075322;28;20044;-68
2021/11/19 06:13:18;;;;;;;48.10;18.50;;;;;;;;;;5076185;28;20053;-67
2021/11/19 06:15:48;;;;;;;50.97;17.92;;;;;;;;;;5074719;28;20064;-67
2021/11/19 06:18:20;;;;;;;57.92;21.77;;;;;;;;;;5074889;28;20040;-66
2021/11/19 06:20:49;;;;;;;53.75;20.83;;;;;;;;;;5074590;28;20063;-67
2021/11/19 06:23:32;;;;;;;59.58;21.70;;;;;;;;;;5074717;28;20045;-68
2021/11/19 06:26:03;;;;;;;59.28;21.65;;;;;;;;;;5074562;28;20054;-68
2021/11/19 06:28:35;;;;;;;50.90;19.80;;;;;;;;;;5074723;28;20186;-67
2021/11/19 06:31:02;;;;;;;54.55;20.05;;;;;;;;;;5074488;28;20136;-66
2021/11/19 06:33:30;;;;;;;54.60;19.42;;;;;;;;;;5074326;28;20053;-67
2021/11/19 06:35:57;;;;;;;47.45;19.45;;;;;;;;;;5073977;28;20497;-67
2021/11/19 06:38:24;;;;;;;50.22;21.17;;;;;;;;;;5074306;28;20048;-66
2021/11/19 06:40:51;;;;;;;49.50;19.58;;;;;;;;;;5074206;28;20044;-68
2021/11/19 06:43:19;;;;;;;49.85;20.60;;;;;;;;;;5074526;28;20051;-67
2021/11/19 06:45:46;;;;;;;44.20;18.85;;;;;;;;;;5073640;28;20053;-67
2021/11/19 06:48:13;;;;;;;50.20;19.02;;;;;;;;;;5074155;28;20048;-68
2021/11/19 06:50:43;;;;;;;43.67;18.77;;;;;;;;;;5074325;28;20054;-68
2021/11/19 06:53:10;;;;;;;45.03;18.63;;;;;;;;;;5074221;28;20059;-68
2021/11/19 06:55:38;;;;;;;47.55;19.02;;;;;;;;;;5073945;28;20052;-68
2021/11/19 06:58:07;;;;;;;43.15;18.13;;;;;;;;;;5074256;28;20080;-68
2021/11/19 07:00:40;;;;;;;42.55;17.08;;;;;;;;;;5074175;28;20049;-68
2021/11/19 07:03:08;;;;;;;43.15;16.63;;;;;;;;;;5073717;28;20057;-68
2021/11/19 07:05:35;;;;;;;47.22;18.77;;;;;;;;;;5074072;28;20053;-68
2021/11/19 07:08:02;;;;;;;40.10;16.38;;;;;;;;;;5074086;28;20155;-68
2021/11/19 07:10:30;;;;;;;49.13;18.15;;;;;;;;;;5073798;28;20046;-68
2021/11/19 07:12:57;;;;;;;44.08;15.95;;;;;;;;;;5073795;28;20412;-67
2021/11/19 07:15:25;;;;;;;44.53;18.05;;;;;;;;;;5073808;28;20386;-68
2021/11/19 07:17:54;;;;;;;43.03;18.98;;;;;;;;;;5073493;28;20460;-68
2021/11/19 07:20:23;;;;;;;45.60;17.50;;;;;;;;;;5073441;28;20218;-68
2021/11/19 07:22:50;;;;;;;45.38;17.95;;;;;;;;;;5073282;28;20051;-68
2021/11/19 07:25:20;;;;;;;43.95;18.70;;;;;;;;;;5073575;28;20047;-66
2021/11/19 07:27:53;;;;;;;50.58;20.98;;;;;;;;;;5074027;28;20135;-68
2021/11/19 07:30:23;;;;;;;48.30;19.08;;;;;;;;;;5073371;28;20040;-68
2021/11/19 07:32:50;;;;;;;50.25;21.23;;;;;;;;;;5073813;28;20409;-68
2021/11/19 07:35:20;;;;;;;56.30;22.77;;;;;;;;;;5073672;28;20064;-67
2021/11/19 07:37:48;;;;;;;58.90;23.10;;;;;;;;;;5072904;28;20095;-68
2021/11/19 07:40:17;;;;;;;71.20;25.33;;;;;;;;;;5073093;28;20053;-68
2021/11/19 07:42:44;;;;;;;58.50;21.65;;;;;;;;;;5073223;28;20059;-67
2021/11/19 07:45:12;;;;;;;56.47;22.75;;;;;;;;;;5072980;28;20058;-67
2021/11/19 07:47:40;;;;;;;59.85;22.00;;;;;;;;;;5073294;28;20467;-67
2021/11/19 07:50:11;;;;;;;57.53;22.27;;;;;;;;;;5073692;28;20049;-68
2021/11/19 07:52:39;;;;;;;56.40;21.98;;;;;;;;;;5073455;28;20500;-68
2021/11/19 07:55:11;;;;;;;59.03;21.98;;;;;;;;;;5072935;28;20498;-67
2021/11/19 07:57:38;;;;;;;57.33;22.63;;;;;;;;;;5073253;28;20059;-68
2021/11/19 08:00:09;;;;;;;54.72;22.50;;;;;;;;;;5073299;28;20505;-67
2021/11/19 08:02:36;;;;;;;52.40;21.33;;;;;;;;;;5073135;28;20109;-67
2021/11/19 08:05:05;;;;;;;56.90;22.42;;;;;;;;;;5072940;28;20135;-66
2021/11/19 08:07:32;;;;;;;54.83;23.08;;;;;;;;;;5073018;28;20048;-68
2021/11/19 08:10:01;;;;;;;49.08;21.38;;;;;;;;;;5072486;28;20135;-67
2021/11/19 08:12:28;;;;;;;50.08;20.30;;;;;;;;;;5073343;28;20060;-68
2021/11/19 08:14:55;;;;;;;50.75;21.85;;;;;;;;;;5072885;28;20048;-67
2021/11/19 08:17:26;;;;;;;49.65;19.63;;;;;;;;;;5073019;28;20052;-68
2021/11/19 08:19:53;;;;;;;50.63;19.27;;;;;;;;;;5073228;28;20053;-69
2021/11/19 08:22:20;;;;;;;47.97;19.30;;;;;;;;;;5072590;28;20045;-67
2021/11/19 08:24:48;;;;;;;43.22;18.63;;;;;;;;;;5073237;28;20044;-68
2021/11/19 08:27:21;;;;;;;44.67;19.05;;;;;;;;;;5072949;28;20105;-67
2021/11/19 08:29:53;;;;;;;40.95;18.05;;;;;;;;;;5072811;28;20053;-68
2021/11/19 08:32:22;;;;;;;37.85;17.70;;;;;;;;;;5073033;28;20052;-69
2021/11/19 08:34:50;;;;;;;41.13;18.13;;;;;;;;;;5072718;28;20147;-68
2021/11/19 08:37:18;;;;;;;39.85;15.93;;;;;;;;;;5073077;28;20128;-68
2021/11/19 08:39:46;;;;;;;42.67;17.02;;;;;;;;;;5072523;28;20055;-68
2021/11/19 08:42:13;;;;;;;39.70;16.33;;;;;;;;;;5072515;28;20052;-68
2021/11/19 08:44:44;;;;;;;40.10;17.55;;;;;;;;;;5072523;28;20049;-68
2021/11/19 08:47:12;;;;;;;55.85;17.73;;;;;;;;;;5072479;28;20135;-68
2021/11/19 08:49:40;;;;;;;42.22;17.02;;;;;;;;;;5071898;28;20048;-69
2021/11/19 08:52:10;;;;;;;37.78;16.92;;;;;;;;;;5072082;28;20129;-67
2021/11/19 08:54:37;;;;;;;40.00;18.33;;;;;;;;;;5071725;28;20050;-67
2021/11/19 08:57:07;;;;;;;44.95;18.52;;;;;;;;;;5071729;28;20044;-67
2021/11/19 08:59:37;;;;;;;37.20;15.75;;;;;;;;;;5072079;28;20413;-68
2021/11/19 09:02:09;;;;;;;32.17;15.40;;;;;;;;;;5072097;28;20049;-68
2021/11/19 09:04:36;;;;;;;32.88;15.55;;;;;;;;;;5071889;28;20052;-68
2021/11/19 09:07:04;;;;;;;33.40;14.68;;;;;;;;;;5071203;28;20055;-68
2021/11/19 09:09:32;;;;;;;40.53;18.80;;;;;;;;;;5072112;28;20055;-67
2021/11/19 09:11:59;;;;;;;34.63;15.40;;;;;;;;;;5071831;28;20058;-67
2021/11/19 09:14:29;;;;;;;34.05;16.33;;;;;;;;;;5071848;28;20055;-68
2021/11/19 09:17:02;;;;;;;32.63;14.18;;;;;;;;;;5071805;28;20053;-68
2021/11/19 09:19:38;;;;;;;30.35;15.20;;;;;;;;;;5071764;28;20131;-67
2021/11/19 09:22:18;;;;;;;33.15;13.70;;;;;;;;;;5071631;28;20256;-67
2021/11/19 09:24:46;;;;;;;30.77;14.97;;;;;;;;;;5071679;28;20059;-67
2021/11/19 09:27:17;;;;;;;27.92;13.88;;;;;;;;;;5071725;28;20048;-67
2021/11/19 09:29:47;;;;;;;30.33;14.77;;;;;;;;;;5072043;28;20132;-67
2021/11/19 09:32:15;;;;;;;31.17;13.45;;;;;;;;;;5071922;28;20058;-67
2021/11/19 09:34:46;;;;;;;28.40;13.32;;;;;;;;;;5071681;28;20055;-67
2021/11/19 09:37:15;;;;;;;30.92;14.18;;;;;;;;;;5071620;28;20476;-70
2021/11/19 09:39:43;;;;;;;37.63;15.45;;;;;;;;;;5071709;28;20105;-67
2021/11/19 09:42:16;;;;;;;32.20;15.00;;;;;;;;;;5071513;28;20084;-67
2021/11/19 09:45:16;;;;;;;35.40;16.10;;;;;;;;;;5071504;28;20410;-68
2021/11/19 09:48:13;;;;;;;30.75;15.57;;;;;;;;;;5071600;28;20048;-67
2021/11/19 09:51:34;;;;;;;35.80;16.48;;;;;;;;;;5071624;28;20053;-68
2021/11/19 09:54:35;;;;;;;33.33;15.40;;;;;;;;;;5071718;28;20080;-67
2021/11/19 09:57:20;;;;;;;37.45;18.40;;;;;;;;;;5046206;28;20106;-67
2021/11/19 09:59:50;;;;;;;38.60;15.70;;;;;;;;;;5071687;28;20133;-68
2021/11/19 10:02:46;;;;;;;36.78;16.15;;;;;;;;;;5071253;28;20123;-67
2021/11/19 10:05:38;;;;;;;37.47;15.98;;;;;;;;;;5071387;28;20052;-67
2021/11/19 10:08:22;;;;;;;36.03;16.40;;;;;;;;;;5071887;28;20544;-67
2021/11/19 10:11:00;;;;;;;36.45;16.60;;;;;;;;;;5071986;28;20052;-69
2021/11/19 10:13:47;;;;;;;41.63;18.55;;;;;;;;;;5071818;28;20128;-69
2021/11/19 10:16:28;;;;;;;40.15;17.42;;;;;;;;;;5071823;28;20163;-68
2021/11/19 10:18:57;;;;;;;;;;;;;;;;;;5072051;28;20086;-69
2021/11/19 10:21:27;;;;;;;37.72;17.30;;;;;;;;;;5074899;28;19920;-68
2021/11/19 10:24:11;;;;;;;39.42;16.75;;;;;;;;;;5075249;28;20059;-65
2021/11/19 10:26:38;;;;;;;42.60;17.25;;;;;;;;;;5074314;28;20058;-64
2021/11/19 10:29:08;;;;;;;45.15;20.33;;;;;;;;;;5074555;28;20132;-65
2021/11/19 10:31:35;;;;;;;41.38;18.95;;;;;;;;;;5074633;28;20139;-65
2021/11/19 10:34:22;;;;;;;44.90;18.80;;;;;;;;;;5074638;28;20048;-65
2021/11/19 10:37:10;;;;;;;36.30;17.33;;;;;;;;;;5074812;28;20060;-65
2021/11/19 10:39:59;;;;;;;42.05;16.27;;;;;;;;;;5074877;28;20048;-66
2021/11/19 10:42:58;;;;;;;45.53;17.20;;;;;;;;;;5074553;28;20045;-65
2021/11/19 10:46:06;;;;;;;39.33;17.45;;;;;;;;;;5049177;28;20190;-66
2021/11/19 10:49:00;;;;;;;32.55;15.60;;;;;;;;;;5074846;28;20051;-65
2021/11/19 10:54:56;;;;;;;42.22;17.80;;;;;;;;;;5071314;28;20493;-62
2021/11/19 10:58:04;;;;;;;37.75;17.15;;;;;;;;;;5073891;28;20102;-63
2021/11/19 11:00:40;;;;;;;39.40;16.70;;;;;;;;;;5053603;28;20052;-65
2021/11/19 11:03:15;;;;;;;37.90;16.70;;;;;;;;;;5073910;28;20569;-63
2021/11/19 11:05:44;;;;;;;39.65;16.52;;;;;;;;;;5073574;28;20102;-63
2021/11/19 11:08:20;;;;;;;37.67;17.60;;;;;;;;;;5073630;28;20051;-62
2021/11/19 11:10:52;;;;;;;39.08;16.45;;;;;;;;;;5073640;28;20413;-63
2021/11/19 11:13:34;;;;;;;34.80;15.88;;;;;;;;;;5073553;28;20063;-63
2021/11/19 11:16:04;;;;;;;37.50;17.10;;;;;;;;;;5073569;28;20083;-63
2021/11/19 11:18:33;;;;;;;34.13;17.48;;;;;;;;;;5073498;28;20078;-65
2021/11/19 11:21:27;;;;;;;38.30;16.80;;;;;;;;;;5073497;28;20099;-63
2021/11/19 11:24:06;;;;;;;42.25;18.38;;;;;;;;;;5073455;28;20053;-62
2021/11/19 11:26:43;;;;;;;34.55;17.02;;;;;;;;;;5073064;28;20110;-63
2021/11/19 11:29:55;;;;;;;35.75;16.65;;;;;;;;;;5073323;28;20052;-63
2021/11/19 11:32:43;;;;;;;35.42;15.93;;;;;;;;;;5073119;28;20122;-63
2021/11/19 11:35:19;;;;;;;32.42;16.40;;;;;;;;;;5073096;28;20056;-63
2021/11/19 11:38:16;;;;;;;39.72;18.48;;;;;;;;;;5072997;28;20048;-65
2021/11/19 11:41:01;;;;;;;46.72;22.15;;;;;;;;;;5065052;28;20063;-63
2021/11/19 11:43:32;;;;;;;36.25;16.67;;;;;;;;;;5073259;28;20049;-63
2021/11/19 11:46:01;;;;;;;35.80;16.42;;;;;;;;;;5073410;28;20451;-65
2021/11/19 11:48:39;;;;;;;35.55;16.60;;;;;;;;;;5073030;28;20060;-62
2021/11/19 11:51:10;;;;;;;32.00;14.98;;;;;;;;;;5072887;28;20044;-63
2021/11/19 11:53:47;;;;;;;29.88;14.32;;;;;;;;;;5072710;28;20063;-63
2021/11/19 11:56:25;;;;;;;42.13;16.70;;;;;;;;;;5072465;28;20055;-63
2021/11/19 11:59:04;;;;;;;45.70;16.85;;;;;;;;;;5072827;28;20503;-63
2021/11/19 12:01:41;;;;;;;29.30;14.93;;;;;;;;;;5072381;28;20045;-64
2021/11/19 12:04:16;;;;;;;31.55;15.23;;;;;;;;;;5073122;28;20446;-63
2021/11/19 12:06:50;;;;;;;38.15;16.80;;;;;;;;;;5072734;28;20409;-63
2021/11/19 12:09:25;;;;;;;29.58;14.95;;;;;;;;;;5072706;28;20053;-63
2021/11/19 12:12:12;;;;;;;33.00;14.52;;;;;;;;;;5072440;28;20055;-63
2021/11/19 12:14:59;;;;;;;52.15;22.10;;;;;;;;;;5072882;28;20048;-62
2021/11/19 12:17:33;;;;;;;37.38;17.13;;;;;;;;;;5072244;28;20067;-63
2021/11/19 12:20:18;;;;;;;29.95;13.63;;;;;;;;;;5072437;28;20130;-64
2021/11/19 12:22:49;;;;;;;30.77;13.35;;;;;;;;;;5072046;28;20058;-70
2021/11/19 12:25:44;;;;;;;26.65;12.68;;;;;;;;;;5072452;28;20067;-68
2021/11/19 12:28:13;;;;;;;30.23;13.15;;;;;;;;;;5072267;28;20064;-69
2021/11/19 12:30:46;;;;;;;34.00;15.40;;;;;;;;;;5072447;28;20511;-69
2021/11/19 12:33:20;;;;;;;30.45;14.98;;;;;;;;;;5072349;28;20090;-73
2021/11/19 12:35:55;;;;;;;33.30;14.93;;;;;;;;;;5072503;28;20528;-63
2021/11/19 12:38:30;;;;;;;31.92;15.25;;;;;;;;;;5072185;28;20511;-64
2021/11/19 12:40:59;;;;;;;27.92;12.75;;;;;;;;;;5072345;28;20052;-64
2021/11/19 12:43:55;;;;;;;26.10;11.82;;;;;;;;;;5071595;28;20390;-61
2021/11/19 12:46:55;;;;;;;28.10;12.88;;;;;;;;;;5072300;28;20143;-60
2021/11/19 12:50:00;;;;;;;25.98;12.25;;;;;;;;;;5072180;28;20549;-58
2021/11/19 12:52:36;;;;;;;24.88;12.50;;;;;;;;;;5053813;28;20121;-59
2021/11/19 12:55:29;;;;;;;26.40;11.88;;;;;;;;;;5072191;28;20053;-59
2021/11/19 12:58:24;;;;;;;20.73;10.30;;;;;;;;;;5071927;28;20098;-58
2021/11/19 13:01:17;;;;;;;23.48;11.80;;;;;;;;;;5071935;28;20061;-59
2021/11/19 13:03:55;;;;;;;25.35;11.68;;;;;;;;;;5071989;28;20153;-60
2021/11/19 13:06:37;;;;;;;18.00;9.77;;;;;;;;;;5071956;28;20430;-59
2021/11/19 13:09:42;;;;;;;22.08;8.68;;;;;;;;;;5071991;28;20045;-60
2021/11/19 13:12:17;;;;;;;16.77;9.02;;;;;;;;;;5071912;28;20049;-60
2021/11/19 13:14:48;;;;;;;19.45;9.10;;;;;;;;;;5071910;28;20052;-58
2021/11/19 13:17:56;;;;;;;19.15;8.70;;;;;;;;;;5072032;28;20527;-64
2021/11/19 13:20:48;;;;;;;18.20;9.18;;;;;;;;;;5071935;28;20052;-71
2021/11/19 13:23:42;;;;;;;22.02;9.02;;;;;;;;;;5071985;28;20045;-62
2021/11/19 13:26:48;;;;;;;21.80;10.02;;;;;;;;;;5072373;28;20056;-69
2021/11/19 13:29:50;;;;;;;20.38;9.75;;;;;;;;;;5066899;28;20048;-60
2021/11/19 13:32:54;;;;;;;17.88;8.50;;;;;;;;;;5072134;28;20060;-60
2021/11/19 13:36:05;;;;;;;20.58;8.43;;;;;;;;;;5071755;28;20049;-60
2021/11/19 13:39:13;;;;;;;16.95;8.98;;;;;;;;;;5071598;28;20055;-60
2021/11/19 13:42:32;;;;;;;17.38;9.07;;;;;;;;;;5071856;28;20053;-58
2021/11/19 13:45:03;;;;;;;16.98;8.40;;;;;;;;;;5071594;28;20088;-59
2021/11/19 13:48:02;;;;;;;19.27;9.32;;;;;;;;;;5071396;28;20048;-58
2021/11/19 13:51:00;;;;;;;21.67;10.63;;;;;;;;;;5071837;28;20049;-59
2021/11/19 13:53:34;;;;;;;18.63;8.27;;;;;;;;;;5072411;28;20052;-58
2021/11/19 13:56:23;;;;;;;18.35;8.80;;;;;;;;;;5075256;28;20056;-59
2021/11/19 13:58:56;;;;;;;17.55;8.13;;;;;;;;;;5075362;28;20091;-59
2021/11/19 14:01:36;;;;;;;16.88;8.50;;;;;;;;;;5074867;28;20084;-59
2021/11/19 14:04:05;;;;;;;18.77;8.07;;;;;;;;;;5074943;28;20064;-60
2021/11/19 14:06:40;;;;;;;16.80;8.00;;;;;;;;;;5075061;28;20052;-58
2021/11/19 14:09:11;;;;;;;19.98;9.60;;;;;;;;;;5075276;28;20489;-59
2021/11/19 14:11:39;;;;;;;;;;;;;;;;;;5076090;28;20498;-60
2021/11/19 14:14:16;;;;;;;21.33;8.57;;;;;;;;;;5074905;28;19920;-60
2021/11/19 14:16:53;;;;;;;15.68;8.77;;;;;;;;;;5074974;28;20424;-58
2021/11/19 14:19:25;;;;;;;17.65;7.25;;;;;;;;;;5074956;28;20409;-64
2021/11/19 14:21:57;;;;;;;36.17;22.77;;;;;;;;;;5074988;28;20405;-60
2021/11/19 14:24:29;;;;;;;51.72;34.33;;;;;;;;;;5074680;28;20056;-60
2021/11/19 14:27:08;;;;;;;22.88;12.93;;;;;;;;;;5074739;28;20055;-59
2021/11/19 14:29:41;;;;;;;25.90;16.70;;;;;;;;;;5074170;28;20075;-60
2021/11/19 14:32:10;;;;;;;27.08;16.92;;;;;;;;;;5075007;28;20044;-59
2021/11/19 14:34:46;;;;;;;25.75;14.95;;;;;;;;;;5075316;28;20064;-60
2021/11/19 14:37:22;;;;;;;27.15;14.30;;;;;;;;;;5074653;28;20048;-60
2021/11/19 14:39:51;;;;;;;21.25;12.57;;;;;;;;;;5074807;28;20509;-60
2021/11/19 14:42:21;;;;;;;21.88;12.07;;;;;;;;;;5074515;28;20132;-59
2021/11/19 14:44:54;;;;;;;18.35;11.05;;;;;;;;;;5074656;28;20405;-59
2021/11/19 14:47:24;;;;;;;21.98;11.48;;;;;;;;;;5074297;28;20049;-59
2021/11/19 14:50:09;;;;;;;19.75;10.15;;;;;;;;;;5074633;28;20109;-60
2021/11/19 14:52:49;;;;;;;19.35;9.98;;;;;;;;;;5074140;28;20060;-59
2021/11/19 14:55:24;;;;;;;21.23;11.30;;;;;;;;;;5074544;28;20045;-60
2021/11/19 14:57:56;;;;;;;20.27;10.50;;;;;;;;;;5074035;28;20131;-60
2021/11/19 15:00:35;;;;;;;14.63;7.90;;;;;;;;;;5074071;28;20057;-60